sensor_id;sensor_type;location;lat;lon;timestamp;temperature;humidity
33269;DHT22;19640;50.944;5.260;2023-06-04T00:00:42;15.20;89.20
33269;DHT22;19640;50.944;5.260;2023-06-04T00:03:08;15.30;88.80
33269;DHT22;19640;50.944;5.260;2023-06-04T00:05:33;15.20;88.80
33269;DHT22;19640;50.944;5.260;2023-06-04T00:07:59;15.10;87.50
33269;DHT22;19640;50.944;5.260;2023-06-04T00:10:25;15.10;89.90
33269;DHT22;19640;50.944;5.260;2023-06-04T00:12:50;15.00;90.30
33269;DHT22;19640;50.944;5.260;2023-06-04T00:15:16;15.20;90.10
33269;DHT22;19640;50.944;5.260;2023-06-04T00:17:42;15.10;89.80
33269;DHT22;19640;50.944;5.260;2023-06-04T00:20:08;15.10;89.90
33269;DHT22;19640;50.944;5.260;2023-06-04T00:22:34;15.00;90.60
33269;DHT22;19640;50.944;5.260;2023-06-04T00:25:00;14.90;90.40
33269;DHT22;19640;50.944;5.260;2023-06-04T00:27:25;14.90;89.30
33269;DHT22;19640;50.944;5.260;2023-06-04T00:29:51;14.90;89.20
33269;DHT22;19640;50.944;5.260;2023-06-04T00:32:16;14.90;89.20
33269;DHT22;19640;50.944;5.260;2023-06-04T00:34:42;14.80;90.20
33269;DHT22;19640;50.944;5.260;2023-06-04T00:37:08;14.70;90.30
33269;DHT22;19640;50.944;5.260;2023-06-04T00:39:33;14.70;91.00
33269;DHT22;19640;50.944;5.260;2023-06-04T00:42:00;14.50;91.20
33269;DHT22;19640;50.944;5.260;2023-06-04T00:44:26;14.40;91.40
33269;DHT22;19640;50.944;5.260;2023-06-04T00:46:52;14.30;91.90
33269;DHT22;19640;50.944;5.260;2023-06-04T00:49:19;14.40;91.40
33269;DHT22;19640;50.944;5.260;2023-06-04T00:51:45;14.50;90.70
33269;DHT22;19640;50.944;5.260;2023-06-04T00:54:12;14.40;91.30
33269;DHT22;19640;50.944;5.260;2023-06-04T00:56:38;14.20;92.30
33269;DHT22;19640;50.944;5.260;2023-06-04T00:59:08;14.00;92.30
33269;DHT22;19640;50.944;5.260;2023-06-04T01:04:11;13.90;92.00
33269;DHT22;19640;50.944;5.260;2023-06-04T01:06:44;14.00;91.70
33269;DHT22;19640;50.944;5.260;2023-06-04T01:09:11;14.10;91.60
33269;DHT22;19640;50.944;5.260;2023-06-04T01:11:39;14.20;90.90
33269;DHT22;19640;50.944;5.260;2023-06-04T01:14:07;14.10;91.80
33269;DHT22;19640;50.944;5.260;2023-06-04T01:16:41;14.10;90.90
33269;DHT22;19640;50.944;5.260;2023-06-04T01:19:47;14.10;91.50
33269;DHT22;19640;50.944;5.260;2023-06-04T01:22:48;14.20;90.90
33269;DHT22;19640;50.944;5.260;2023-06-04T01:25:34;14.10;91.70
33269;DHT22;19640;50.944;5.260;2023-06-04T01:28:01;13.90;92.60
33269;DHT22;19640;50.944;5.260;2023-06-04T01:30:34;13.90;92.80
33269;DHT22;19640;50.944;5.260;2023-06-04T01:33:01;13.80;93.00
33269;DHT22;19640;50.944;5.260;2023-06-04T01:35:28;13.60;93.30
33269;DHT22;19640;50.944;5.260;2023-06-04T01:37:54;13.50;93.30
33269;DHT22;19640;50.944;5.260;2023-06-04T01:40:20;13.20;93.50
33269;DHT22;19640;50.944;5.260;2023-06-04T01:42:46;13.40;93.70
33269;DHT22;19640;50.944;5.260;2023-06-04T01:45:12;13.30;92.80
33269;DHT22;19640;50.944;5.260;2023-06-04T01:47:38;13.20;92.70
33269;DHT22;19640;50.944;5.260;2023-06-04T01:50:07;13.00;92.50
33269;DHT22;19640;50.944;5.260;2023-06-04T01:52:37;13.10;91.50
33269;DHT22;19640;50.944;5.260;2023-06-04T01:55:04;13.20;92.10
33269;DHT22;19640;50.944;5.260;2023-06-04T01:57:30;13.20;91.30
33269;DHT22;19640;50.944;5.260;2023-06-04T01:59:56;13.30;92.10
33269;DHT22;19640;50.944;5.260;2023-06-04T02:02:21;13.30;92.60
33269;DHT22;19640;50.944;5.260;2023-06-04T02:04:47;13.40;92.80
33269;DHT22;19640;50.944;5.260;2023-06-04T02:07:13;13.50;92.40
33269;DHT22;19640;50.944;5.260;2023-06-04T02:09:46;13.40;92.60
33269;DHT22;19640;50.944;5.260;2023-06-04T02:12:12;13.30;93.00
33269;DHT22;19640;50.944;5.260;2023-06-04T02:14:37;13.30;93.40
33269;DHT22;19640;50.944;5.260;2023-06-04T02:17:04;13.30;93.00
33269;DHT22;19640;50.944;5.260;2023-06-04T02:19:30;13.30;92.30
33269;DHT22;19640;50.944;5.260;2023-06-04T02:21:59;13.30;92.30
33269;DHT22;19640;50.944;5.260;2023-06-04T02:24:24;13.30;92.60
33269;DHT22;19640;50.944;5.260;2023-06-04T02:26:50;13.30;93.00
33269;DHT22;19640;50.944;5.260;2023-06-04T02:29:16;13.20;92.70
33269;DHT22;19640;50.944;5.260;2023-06-04T02:31:42;13.00;93.30
33269;DHT22;19640;50.944;5.260;2023-06-04T02:34:07;13.10;93.80
33269;DHT22;19640;50.944;5.260;2023-06-04T02:36:34;13.10;93.70
33269;DHT22;19640;50.944;5.260;2023-06-04T02:38:59;13.10;93.50
33269;DHT22;19640;50.944;5.260;2023-06-04T02:41:26;13.20;93.00
33269;DHT22;19640;50.944;5.260;2023-06-04T02:43:52;13.20;93.40
33269;DHT22;19640;50.944;5.260;2023-06-04T02:46:18;13.10;93.50
33269;DHT22;19640;50.944;5.260;2023-06-04T02:48:43;13.20;92.90
33269;DHT22;19640;50.944;5.260;2023-06-04T02:51:09;13.20;92.90
33269;DHT22;19640;50.944;5.260;2023-06-04T02:53:36;13.20;93.00
33269;DHT22;19640;50.944;5.260;2023-06-04T02:56:02;13.10;92.80
33269;DHT22;19640;50.944;5.260;2023-06-04T02:58:27;13.00;93.50
33269;DHT22;19640;50.944;5.260;2023-06-04T03:00:54;12.90;93.20
33269;DHT22;19640;50.944;5.260;2023-06-04T03:03:21;12.90;93.90
33269;DHT22;19640;50.944;5.260;2023-06-04T03:05:47;12.80;93.80
33269;DHT22;19640;50.944;5.260;2023-06-04T03:08:13;12.70;93.90
33269;DHT22;19640;50.944;5.260;2023-06-04T03:10:39;12.50;94.60
33269;DHT22;19640;50.944;5.260;2023-06-04T03:13:04;12.40;94.80
33269;DHT22;19640;50.944;5.260;2023-06-04T03:15:30;12.50;95.20
33269;DHT22;19640;50.944;5.260;2023-06-04T03:17:56;12.50;95.40
33269;DHT22;19640;50.944;5.260;2023-06-04T03:20:22;12.60;95.50
33269;DHT22;19640;50.944;5.260;2023-06-04T03:22:50;12.60;95.60
33269;DHT22;19640;50.944;5.260;2023-06-04T03:25:16;12.50;95.90
33269;DHT22;19640;50.944;5.260;2023-06-04T03:27:42;12.50;96.10
33269;DHT22;19640;50.944;5.260;2023-06-04T03:30:08;12.40;96.60
33269;DHT22;19640;50.944;5.260;2023-06-04T03:32:35;12.40;96.90
33269;DHT22;19640;50.944;5.260;2023-06-04T03:35:01;12.30;97.20
33269;DHT22;19640;50.944;5.260;2023-06-04T03:37:27;12.20;97.80
33269;DHT22;19640;50.944;5.260;2023-06-04T03:39:53;12.30;97.80
33269;DHT22;19640;50.944;5.260;2023-06-04T03:42:18;12.40;97.90
33269;DHT22;19640;50.944;5.260;2023-06-04T03:44:44;12.40;98.10
33269;DHT22;19640;50.944;5.260;2023-06-04T03:47:11;12.40;98.10
33269;DHT22;19640;50.944;5.260;2023-06-04T03:49:37;12.30;98.60
33269;DHT22;19640;50.944;5.260;2023-06-04T03:52:02;12.30;98.80
33269;DHT22;19640;50.944;5.260;2023-06-04T03:54:28;12.20;99.20
33269;DHT22;19640;50.944;5.260;2023-06-04T03:56:54;12.30;99.30
33269;DHT22;19640;50.944;5.260;2023-06-04T03:59:19;12.30;99.50
33269;DHT22;19640;50.944;5.260;2023-06-04T04:01:45;12.20;99.70
33269;DHT22;19640;50.944;5.260;2023-06-04T04:04:11;12.20;99.90
33269;DHT22;19640;50.944;5.260;2023-06-04T04:06:36;12.20;99.90
33269;DHT22;19640;50.944;5.260;2023-06-04T04:09:03;12.10;99.90
33269;DHT22;19640;50.944;5.260;2023-06-04T04:11:29;12.30;99.90
33269;DHT22;19640;50.944;5.260;2023-06-04T04:13:56;12.30;99.90
33269;DHT22;19640;50.944;5.260;2023-06-04T04:16:21;12.40;99.90
33269;DHT22;19640;50.944;5.260;2023-06-04T04:18:47;12.40;99.90
33269;DHT22;19640;50.944;5.260;2023-06-04T04:21:12;12.30;99.90
33269;DHT22;19640;50.944;5.260;2023-06-04T04:23:39;12.40;99.90
33269;DHT22;19640;50.944;5.260;2023-06-04T04:26:08;12.40;99.90
33269;DHT22;19640;50.944;5.260;2023-06-04T04:28:34;12.50;99.90
33269;DHT22;19640;50.944;5.260;2023-06-04T04:31:00;12.50;99.90
33269;DHT22;19640;50.944;5.260;2023-06-04T04:33:28;12.50;99.90
33269;DHT22;19640;50.944;5.260;2023-06-04T04:35:58;12.60;99.90
33269;DHT22;19640;50.944;5.260;2023-06-04T04:38:27;12.60;99.90
33269;DHT22;19640;50.944;5.260;2023-06-04T04:40:55;12.70;99.90
33269;DHT22;19640;50.944;5.260;2023-06-04T04:43:34;12.60;99.90
33269;DHT22;19640;50.944;5.260;2023-06-04T04:46:00;12.70;99.90
33269;DHT22;19640;50.944;5.260;2023-06-04T04:48:25;12.60;99.90
33269;DHT22;19640;50.944;5.260;2023-06-04T04:50:52;12.70;99.90
33269;DHT22;19640;50.944;5.260;2023-06-04T04:53:18;12.70;99.90
33269;DHT22;19640;50.944;5.260;2023-06-04T04:55:44;12.80;99.90
33269;DHT22;19640;50.944;5.260;2023-06-04T04:58:09;12.80;99.90
33269;DHT22;19640;50.944;5.260;2023-06-04T05:00:35;12.80;99.90
33269;DHT22;19640;50.944;5.260;2023-06-04T05:03:01;12.90;99.90
33269;DHT22;19640;50.944;5.260;2023-06-04T05:05:26;12.90;99.90
33269;DHT22;19640;50.944;5.260;2023-06-04T05:07:52;13.00;99.90
33269;DHT22;19640;50.944;5.260;2023-06-04T05:10:18;13.00;99.90
33269;DHT22;19640;50.944;5.260;2023-06-04T05:12:56;12.90;99.90
33269;DHT22;19640;50.944;5.260;2023-06-04T05:15:22;13.00;99.90
33269;DHT22;19640;50.944;5.260;2023-06-04T05:17:50;13.10;99.90
33269;DHT22;19640;50.944;5.260;2023-06-04T05:20:18;13.10;99.90
33269;DHT22;19640;50.944;5.260;2023-06-04T05:22:44;13.00;99.90
33269;DHT22;19640;50.944;5.260;2023-06-04T05:25:11;13.00;99.90
33269;DHT22;19640;50.944;5.260;2023-06-04T05:27:37;13.20;99.90
33269;DHT22;19640;50.944;5.260;2023-06-04T05:30:04;13.30;99.90
33269;DHT22;19640;50.944;5.260;2023-06-04T05:32:30;13.40;99.90
33269;DHT22;19640;50.944;5.260;2023-06-04T05:34:58;13.50;99.90
33269;DHT22;19640;50.944;5.260;2023-06-04T05:37:25;13.60;99.90
33269;DHT22;19640;50.944;5.260;2023-06-04T05:39:52;13.60;99.90
33269;DHT22;19640;50.944;5.260;2023-06-04T05:42:19;13.60;99.90
33269;DHT22;19640;50.944;5.260;2023-06-04T05:44:45;13.70;99.90
33269;DHT22;19640;50.944;5.260;2023-06-04T05:47:11;13.80;99.90
33269;DHT22;19640;50.944;5.260;2023-06-04T05:49:36;13.80;99.90
33269;DHT22;19640;50.944;5.260;2023-06-04T05:52:02;13.80;99.90
33269;DHT22;19640;50.944;5.260;2023-06-04T05:54:29;13.90;99.90
33269;DHT22;19640;50.944;5.260;2023-06-04T05:56:54;13.80;99.90
33269;DHT22;19640;50.944;5.260;2023-06-04T05:59:20;13.90;99.90
33269;DHT22;19640;50.944;5.260;2023-06-04T06:01:46;13.90;99.90
33269;DHT22;19640;50.944;5.260;2023-06-04T06:04:13;13.90;99.90
33269;DHT22;19640;50.944;5.260;2023-06-04T06:06:39;14.10;99.90
33269;DHT22;19640;50.944;5.260;2023-06-04T06:09:05;14.00;99.90
33269;DHT22;19640;50.944;5.260;2023-06-04T06:11:31;14.10;99.90
33269;DHT22;19640;50.944;5.260;2023-06-04T06:13:56;14.10;99.90
33269;DHT22;19640;50.944;5.260;2023-06-04T06:16:22;14.30;99.90
33269;DHT22;19640;50.944;5.260;2023-06-04T06:18:47;14.40;99.90
33269;DHT22;19640;50.944;5.260;2023-06-04T06:21:13;14.90;99.90
33269;DHT22;19640;50.944;5.260;2023-06-04T06:23:39;15.80;99.20
33269;DHT22;19640;50.944;5.260;2023-06-04T06:26:05;16.20;96.50
33269;DHT22;19640;50.944;5.260;2023-06-04T06:28:33;16.30;96.30
33269;DHT22;19640;50.944;5.260;2023-06-04T06:30:59;17.40;95.30
33269;DHT22;19640;50.944;5.260;2023-06-04T06:33:25;18.20;94.00
33269;DHT22;19640;50.944;5.260;2023-06-04T06:35:51;18.80;92.30
33269;DHT22;19640;50.944;5.260;2023-06-04T06:38:17;19.50;91.10
33269;DHT22;19640;50.944;5.260;2023-06-04T06:40:42;19.60;90.40
33269;DHT22;19640;50.944;5.260;2023-06-04T06:43:08;19.30;90.00
33269;DHT22;19640;50.944;5.260;2023-06-04T06:45:35;19.30;90.60
33269;DHT22;19640;50.944;5.260;2023-06-04T06:48:01;19.40;89.60
33269;DHT22;19640;50.944;5.260;2023-06-04T06:50:27;19.10;89.80
33269;DHT22;19640;50.944;5.260;2023-06-04T06:52:52;19.00;90.30
33269;DHT22;19640;50.944;5.260;2023-06-04T06:55:18;19.20;90.50
33269;DHT22;19640;50.944;5.260;2023-06-04T06:57:44;19.60;88.10
33269;DHT22;19640;50.944;5.260;2023-06-04T07:00:10;19.70;88.90
33269;DHT22;19640;50.944;5.260;2023-06-04T07:02:36;21.00;87.90
33269;DHT22;19640;50.944;5.260;2023-06-04T07:05:02;21.50;83.60
33269;DHT22;19640;50.944;5.260;2023-06-04T07:07:28;21.60;80.50
33269;DHT22;19640;50.944;5.260;2023-06-04T07:09:54;21.40;80.70
33269;DHT22;19640;50.944;5.260;2023-06-04T07:12:20;21.00;80.90
33269;DHT22;19640;50.944;5.260;2023-06-04T07:14:45;21.50;80.40
33269;DHT22;19640;50.944;5.260;2023-06-04T07:17:11;22.00;80.30
33269;DHT22;19640;50.944;5.260;2023-06-04T07:19:36;21.50;80.20
33269;DHT22;19640;50.944;5.260;2023-06-04T07:22:02;21.50;82.20
33269;DHT22;19640;50.944;5.260;2023-06-04T07:24:28;21.90;79.10
33269;DHT22;19640;50.944;5.260;2023-06-04T07:26:54;22.50;80.40
33269;DHT22;19640;50.944;5.260;2023-06-04T07:29:19;22.40;78.90
33269;DHT22;19640;50.944;5.260;2023-06-04T07:31:45;22.90;75.60
33269;DHT22;19640;50.944;5.260;2023-06-04T07:34:11;23.00;75.80
33269;DHT22;19640;50.944;5.260;2023-06-04T07:36:37;22.70;77.10
33269;DHT22;19640;50.944;5.260;2023-06-04T07:39:02;22.90;77.00
33269;DHT22;19640;50.944;5.260;2023-06-04T07:41:30;24.00;76.40
33269;DHT22;19640;50.944;5.260;2023-06-04T07:43:55;24.60;72.90
33269;DHT22;19640;50.944;5.260;2023-06-04T07:46:21;24.80;71.60
33269;DHT22;19640;50.944;5.260;2023-06-04T07:48:47;24.60;72.40
33269;DHT22;19640;50.944;5.260;2023-06-04T07:51:13;24.60;72.00
33269;DHT22;19640;50.944;5.260;2023-06-04T07:53:39;24.20;72.80
33269;DHT22;19640;50.944;5.260;2023-06-04T07:56:05;23.70;73.20
33269;DHT22;19640;50.944;5.260;2023-06-04T07:58:31;22.60;77.20
33269;DHT22;19640;50.944;5.260;2023-06-04T08:00:57;23.20;77.40
33269;DHT22;19640;50.944;5.260;2023-06-04T08:03:22;23.70;76.20
33269;DHT22;19640;50.944;5.260;2023-06-04T08:05:49;23.20;74.60
33269;DHT22;19640;50.944;5.260;2023-06-04T08:08:15;23.70;74.20
33269;DHT22;19640;50.944;5.260;2023-06-04T08:10:41;23.50;78.00
33269;DHT22;19640;50.944;5.260;2023-06-04T08:13:06;23.20;76.60
33269;DHT22;19640;50.944;5.260;2023-06-04T08:15:32;23.10;77.50
33269;DHT22;19640;50.944;5.260;2023-06-04T08:17:58;22.30;76.70
33269;DHT22;19640;50.944;5.260;2023-06-04T08:20:24;21.70;79.60
33269;DHT22;19640;50.944;5.260;2023-06-04T08:22:49;21.70;79.90
33269;DHT22;19640;50.944;5.260;2023-06-04T08:25:15;21.10;79.00
33269;DHT22;19640;50.944;5.260;2023-06-04T08:27:41;20.90;80.30
33269;DHT22;19640;50.944;5.260;2023-06-04T08:30:08;21.30;83.50
33269;DHT22;19640;50.944;5.260;2023-06-04T08:32:34;21.40;78.50
33269;DHT22;19640;50.944;5.260;2023-06-04T08:35:00;21.50;81.20
33269;DHT22;19640;50.944;5.260;2023-06-04T08:37:25;21.30;80.00
33269;DHT22;19640;50.944;5.260;2023-06-04T08:39:51;21.30;80.20
33269;DHT22;19640;50.944;5.260;2023-06-04T08:42:44;21.60;83.40
33269;DHT22;19640;50.944;5.260;2023-06-04T08:45:14;21.50;77.30
33269;DHT22;19640;50.944;5.260;2023-06-04T08:47:48;21.40;77.20
33269;DHT22;19640;50.944;5.260;2023-06-04T08:50:17;21.50;75.10
33269;DHT22;19640;50.944;5.260;2023-06-04T08:52:43;21.60;77.40
33269;DHT22;19640;50.944;5.260;2023-06-04T08:55:11;21.50;77.60
33269;DHT22;19640;50.944;5.260;2023-06-04T08:57:38;21.50;79.00
33269;DHT22;19640;50.944;5.260;2023-06-04T09:00:06;21.40;82.90
33269;DHT22;19640;50.944;5.260;2023-06-04T09:02:36;21.70;80.90
33269;DHT22;19640;50.944;5.260;2023-06-04T09:05:05;21.90;81.30
33269;DHT22;19640;50.944;5.260;2023-06-04T09:07:35;21.80;77.20
33269;DHT22;19640;50.944;5.260;2023-06-04T09:10:03;21.80;79.00
33269;DHT22;19640;50.944;5.260;2023-06-04T09:12:30;22.10;77.70
33269;DHT22;19640;50.944;5.260;2023-06-04T09:14:58;22.30;77.20
33269;DHT22;19640;50.944;5.260;2023-06-04T09:17:24;22.10;75.60
33269;DHT22;19640;50.944;5.260;2023-06-04T09:19:51;22.00;78.90
33269;DHT22;19640;50.944;5.260;2023-06-04T09:22:17;21.80;72.60
33269;DHT22;19640;50.944;5.260;2023-06-04T09:24:45;21.40;75.70
33269;DHT22;19640;50.944;5.260;2023-06-04T09:27:19;21.40;76.90
33269;DHT22;19640;50.944;5.260;2023-06-04T09:29:54;21.60;75.90
33269;DHT22;19640;50.944;5.260;2023-06-04T09:32:23;21.60;78.30
33269;DHT22;19640;50.944;5.260;2023-06-04T09:34:49;21.80;75.60
33269;DHT22;19640;50.944;5.260;2023-06-04T09:37:15;21.60;75.70
33269;DHT22;19640;50.944;5.260;2023-06-04T09:39:43;21.70;75.20
33269;DHT22;19640;50.944;5.260;2023-06-04T09:42:10;21.80;74.60
33269;DHT22;19640;50.944;5.260;2023-06-04T09:44:45;21.90;72.50
33269;DHT22;19640;50.944;5.260;2023-06-04T09:47:11;22.30;74.90
33269;DHT22;19640;50.944;5.260;2023-06-04T09:49:44;22.60;71.70
33269;DHT22;19640;50.944;5.260;2023-06-04T09:52:10;22.70;73.00
33269;DHT22;19640;50.944;5.260;2023-06-04T09:54:37;22.60;69.00
33269;DHT22;19640;50.944;5.260;2023-06-04T09:57:13;22.70;70.80
33269;DHT22;19640;50.944;5.260;2023-06-04T09:59:40;22.80;72.50
33269;DHT22;19640;50.944;5.260;2023-06-04T10:02:09;22.80;72.50
33269;DHT22;19640;50.944;5.260;2023-06-04T10:04:37;22.90;74.30
33269;DHT22;19640;50.944;5.260;2023-06-04T10:07:06;22.90;70.50
33269;DHT22;19640;50.944;5.260;2023-06-04T10:09:34;22.70;72.80
33269;DHT22;19640;50.944;5.260;2023-06-04T10:12:01;22.90;72.30
33269;DHT22;19640;50.944;5.260;2023-06-04T10:14:57;23.00;70.70
33269;DHT22;19640;50.944;5.260;2023-06-04T10:17:25;22.90;68.30
33269;DHT22;19640;50.944;5.260;2023-06-04T10:19:52;22.90;72.50
33269;DHT22;19640;50.944;5.260;2023-06-04T10:22:20;22.90;72.10
33269;DHT22;19640;50.944;5.260;2023-06-04T10:24:46;22.90;72.00
33269;DHT22;19640;50.944;5.260;2023-06-04T10:27:12;22.70;69.10
33269;DHT22;19640;50.944;5.260;2023-06-04T10:29:39;22.40;72.80
33269;DHT22;19640;50.944;5.260;2023-06-04T10:32:05;22.50;67.20
33269;DHT22;19640;50.944;5.260;2023-06-04T10:34:31;22.70;71.00
33269;DHT22;19640;50.944;5.260;2023-06-04T10:36:57;22.70;71.50
33269;DHT22;19640;50.944;5.260;2023-06-04T10:39:27;22.70;66.40
33269;DHT22;19640;50.944;5.260;2023-06-04T10:42:06;22.50;68.00
33269;DHT22;19640;50.944;5.260;2023-06-04T10:44:47;22.70;72.10
33269;DHT22;19640;50.944;5.260;2023-06-04T10:47:27;22.90;71.30
33269;DHT22;19640;50.944;5.260;2023-06-04T10:49:54;22.90;71.30
33269;DHT22;19640;50.944;5.260;2023-06-04T10:52:21;22.70;68.40
33269;DHT22;19640;50.944;5.260;2023-06-04T10:54:47;22.70;66.00
33269;DHT22;19640;50.944;5.260;2023-06-04T10:57:19;23.00;73.70
33269;DHT22;19640;50.944;5.260;2023-06-04T10:59:57;22.80;73.20
33269;DHT22;19640;50.944;5.260;2023-06-04T11:02:24;22.80;70.30
33269;DHT22;19640;50.944;5.260;2023-06-04T11:05:03;22.80;70.30
33269;DHT22;19640;50.944;5.260;2023-06-04T11:08:01;23.00;71.10
33269;DHT22;19640;50.944;5.260;2023-06-04T11:10:35;23.10;65.70
33269;DHT22;19640;50.944;5.260;2023-06-04T11:13:02;22.80;65.00
33269;DHT22;19640;50.944;5.260;2023-06-04T11:15:57;22.80;67.10
33269;DHT22;19640;50.944;5.260;2023-06-04T11:18:23;23.00;70.80
33269;DHT22;19640;50.944;5.260;2023-06-04T11:20:58;23.30;67.70
33269;DHT22;19640;50.944;5.260;2023-06-04T11:23:24;23.40;69.60
33269;DHT22;19640;50.944;5.260;2023-06-04T11:25:52;23.40;65.30
33269;DHT22;19640;50.944;5.260;2023-06-04T11:28:18;23.40;70.30
33269;DHT22;19640;50.944;5.260;2023-06-04T11:31:05;23.10;67.40
33269;DHT22;19640;50.944;5.260;2023-06-04T11:33:44;23.20;70.40
33269;DHT22;19640;50.944;5.260;2023-06-04T11:36:10;23.30;73.30
33269;DHT22;19640;50.944;5.260;2023-06-04T11:38:36;23.40;65.90
33269;DHT22;19640;50.944;5.260;2023-06-04T11:41:02;23.20;65.10
33269;DHT22;19640;50.944;5.260;2023-06-04T11:43:30;23.30;65.60
33269;DHT22;19640;50.944;5.260;2023-06-04T11:45:57;23.00;64.00
33269;DHT22;19640;50.944;5.260;2023-06-04T11:48:23;23.10;68.40
33269;DHT22;19640;50.944;5.260;2023-06-04T11:50:49;23.20;68.60
33269;DHT22;19640;50.944;5.260;2023-06-04T11:53:15;23.20;66.70
33269;DHT22;19640;50.944;5.260;2023-06-04T11:55:41;23.40;69.90
33269;DHT22;19640;50.944;5.260;2023-06-04T11:58:07;23.60;69.50
33269;DHT22;19640;50.944;5.260;2023-06-04T12:00:32;23.50;65.20
33269;DHT22;19640;50.944;5.260;2023-06-04T12:02:58;23.70;67.60
33269;DHT22;19640;50.944;5.260;2023-06-04T12:05:31;24.00;66.50
33269;DHT22;19640;50.944;5.260;2023-06-04T12:08:10;23.90;63.70
33269;DHT22;19640;50.944;5.260;2023-06-04T12:10:43;23.60;63.40
33269;DHT22;19640;50.944;5.260;2023-06-04T12:13:09;23.60;62.50
33269;DHT22;19640;50.944;5.260;2023-06-04T12:15:35;23.40;62.50
33269;DHT22;19640;50.944;5.260;2023-06-04T12:18:01;23.50;64.80
33269;DHT22;19640;50.944;5.260;2023-06-04T12:20:37;23.50;61.60
33269;DHT22;19640;50.944;5.260;2023-06-04T12:23:04;23.40;62.20
33269;DHT22;19640;50.944;5.260;2023-06-04T12:25:32;23.40;67.30
33269;DHT22;19640;50.944;5.260;2023-06-04T12:27:58;23.50;67.00
33269;DHT22;19640;50.944;5.260;2023-06-04T12:30:34;23.60;68.10
33269;DHT22;19640;50.944;5.260;2023-06-04T12:33:00;23.70;66.50
33269;DHT22;19640;50.944;5.260;2023-06-04T12:35:26;23.90;66.50
33269;DHT22;19640;50.944;5.260;2023-06-04T12:37:52;23.80;63.00
33269;DHT22;19640;50.944;5.260;2023-06-04T12:40:17;23.80;62.90
33269;DHT22;19640;50.944;5.260;2023-06-04T12:42:43;23.80;67.20
33269;DHT22;19640;50.944;5.260;2023-06-04T12:45:10;23.50;62.10
33269;DHT22;19640;50.944;5.260;2023-06-04T12:47:37;23.50;62.40
33269;DHT22;19640;50.944;5.260;2023-06-04T12:50:03;23.30;59.30
33269;DHT22;19640;50.944;5.260;2023-06-04T12:52:29;23.40;65.70
33269;DHT22;19640;50.944;5.260;2023-06-04T12:54:55;23.70;63.30
33269;DHT22;19640;50.944;5.260;2023-06-04T12:57:20;23.90;63.20
33269;DHT22;19640;50.944;5.260;2023-06-04T12:59:46;23.80;59.50
33269;DHT22;19640;50.944;5.260;2023-06-04T13:02:12;23.70;61.10
33269;DHT22;19640;50.944;5.260;2023-06-04T13:04:37;23.80;61.20
33269;DHT22;19640;50.944;5.260;2023-06-04T13:07:03;24.10;60.60
33269;DHT22;19640;50.944;5.260;2023-06-04T13:09:29;24.00;63.60
33269;DHT22;19640;50.944;5.260;2023-06-04T13:11:57;24.00;63.50
33269;DHT22;19640;50.944;5.260;2023-06-04T13:14:24;24.10;63.40
33269;DHT22;19640;50.944;5.260;2023-06-04T13:16:49;23.90;58.60
33269;DHT22;19640;50.944;5.260;2023-06-04T13:19:16;24.00;64.20
33269;DHT22;19640;50.944;5.260;2023-06-04T13:21:42;24.00;64.20
33269;DHT22;19640;50.944;5.260;2023-06-04T13:24:09;24.10;65.10
33269;DHT22;19640;50.944;5.260;2023-06-04T13:26:36;24.10;61.80
33269;DHT22;19640;50.944;5.260;2023-06-04T13:29:01;24.10;59.80
33269;DHT22;19640;50.944;5.260;2023-06-04T13:31:27;24.20;59.60
33269;DHT22;19640;50.944;5.260;2023-06-04T13:33:53;23.90;62.50
33269;DHT22;19640;50.944;5.260;2023-06-04T13:36:18;24.00;61.10
33269;DHT22;19640;50.944;5.260;2023-06-04T13:38:44;24.20;64.00
33269;DHT22;19640;50.944;5.260;2023-06-04T13:41:10;24.10;61.20
33269;DHT22;19640;50.944;5.260;2023-06-04T13:43:35;24.00;58.20
33269;DHT22;19640;50.944;5.260;2023-06-04T13:46:01;24.10;64.00
33269;DHT22;19640;50.944;5.260;2023-06-04T13:48:27;24.10;60.10
33269;DHT22;19640;50.944;5.260;2023-06-04T13:50:53;24.10;57.80
33269;DHT22;19640;50.944;5.260;2023-06-04T13:53:19;24.00;56.90
33269;DHT22;19640;50.944;5.260;2023-06-04T13:55:44;24.00;58.00
33269;DHT22;19640;50.944;5.260;2023-06-04T13:58:11;24.00;58.70
33269;DHT22;19640;50.944;5.260;2023-06-04T14:00:37;23.90;61.30
33269;DHT22;19640;50.944;5.260;2023-06-04T14:03:03;24.00;61.50
33269;DHT22;19640;50.944;5.260;2023-06-04T14:05:29;24.10;58.80
33269;DHT22;19640;50.944;5.260;2023-06-04T14:07:55;24.10;58.60
33269;DHT22;19640;50.944;5.260;2023-06-04T14:10:21;24.10;59.10
33269;DHT22;19640;50.944;5.260;2023-06-04T14:12:47;24.10;56.10
33269;DHT22;19640;50.944;5.260;2023-06-04T14:15:13;24.10;56.70
33269;DHT22;19640;50.944;5.260;2023-06-04T14:17:39;24.00;56.90
33269;DHT22;19640;50.944;5.260;2023-06-04T14:20:05;24.00;58.50
33269;DHT22;19640;50.944;5.260;2023-06-04T14:22:41;24.00;55.70
33269;DHT22;19640;50.944;5.260;2023-06-04T14:25:08;23.80;56.10
33269;DHT22;19640;50.944;5.260;2023-06-04T14:27:34;23.60;59.00
33269;DHT22;19640;50.944;5.260;2023-06-04T14:30:02;23.60;57.10
33269;DHT22;19640;50.944;5.260;2023-06-04T14:32:27;23.70;57.00
33269;DHT22;19640;50.944;5.260;2023-06-04T14:34:53;23.80;59.60
33269;DHT22;19640;50.944;5.260;2023-06-04T14:37:19;23.90;57.40
33269;DHT22;19640;50.944;5.260;2023-06-04T14:39:46;24.00;56.30
33269;DHT22;19640;50.944;5.260;2023-06-04T14:42:12;23.90;61.50
33269;DHT22;19640;50.944;5.260;2023-06-04T14:44:38;24.00;58.50
33269;DHT22;19640;50.944;5.260;2023-06-04T14:47:04;23.90;56.00
33269;DHT22;19640;50.944;5.260;2023-06-04T14:49:30;23.90;57.90
33269;DHT22;19640;50.944;5.260;2023-06-04T14:51:56;23.90;60.80
33269;DHT22;19640;50.944;5.260;2023-06-04T14:54:21;23.90;58.00
33269;DHT22;19640;50.944;5.260;2023-06-04T14:56:47;24.00;55.10
33269;DHT22;19640;50.944;5.260;2023-06-04T14:59:13;23.80;55.10
33269;DHT22;19640;50.944;5.260;2023-06-04T15:01:38;23.80;56.60
33269;DHT22;19640;50.944;5.260;2023-06-04T15:04:06;23.90;57.30
33269;DHT22;19640;50.944;5.260;2023-06-04T15:06:32;24.10;62.30
33269;DHT22;19640;50.944;5.260;2023-06-04T15:08:58;24.00;56.30
33269;DHT22;19640;50.944;5.260;2023-06-04T15:11:23;24.10;57.90
33269;DHT22;19640;50.944;5.260;2023-06-04T15:13:49;24.20;58.20
33269;DHT22;19640;50.944;5.260;2023-06-04T15:16:15;24.20;55.90
33269;DHT22;19640;50.944;5.260;2023-06-04T15:18:40;24.10;58.80
33269;DHT22;19640;50.944;5.260;2023-06-04T15:21:07;24.10;56.80
33269;DHT22;19640;50.944;5.260;2023-06-04T15:23:33;24.00;55.10
33269;DHT22;19640;50.944;5.260;2023-06-04T15:25:59;24.00;54.50
33269;DHT22;19640;50.944;5.260;2023-06-04T15:28:25;23.80;56.70
33269;DHT22;19640;50.944;5.260;2023-06-04T15:30:51;23.80;57.00
33269;DHT22;19640;50.944;5.260;2023-06-04T15:33:16;23.90;56.90